KSSF

Stinson Municipal Airport

San Antonio, Texas, USA
METAR KSSF 220353Z AUTO 14009KT 10SM CLR 14/10 A2994 RMK AO2 SLP140 T01390100 $
Observed Flight Rules
Jan-22 @ 03:53 UTC (21 minutes ago) Visual Flight Rules
Wind Visibility Clouds
140° at 9 knots 10 miles
  • Clear skies
Temperatures Readings
Current 14°C / 57°F
Dewpoint 10°C / 50°F
Humidity 77%
Altimeter 29.94" Hg
Pressure 1014 hPa
Elevation 176
METAR KSSF 220353Z AUTO 14009KT 10SM CLR 14/10 A2994 RMK AO2 SLP140 T01390100 $
Observed Flight Rules
Jan-22 @ 03:53 UTC
(21 minutes ago)
VFR
Wind Visibility
140° at 9 knots 10 miles
Clouds
  • Clear skies
Temperature Dewpoint
14°C / 57°F 10°C / 50°F
Humidity Altimeter Pressure
77% 29.94" Hg 1014 hPa